createdAt,value
2018-04-01T00:00:24.199Z,18.78
2018-04-01T00:01:24.205Z,18.84
2018-04-01T00:02:24.222Z,18.87
2018-04-01T00:03:24.202Z,18.81
2018-04-01T00:04:24.205Z,18.85
2018-04-01T00:05:24.193Z,18.87
2018-04-01T00:06:24.187Z,18.77
2018-04-01T00:07:24.205Z,18.81
2018-04-01T00:08:24.198Z,18.85
2018-04-01T00:09:24.219Z,18.75
2018-04-01T00:10:24.173Z,18.81
2018-04-01T00:11:24.180Z,18.84
2018-04-01T00:12:24.222Z,18.75
2018-04-01T00:13:24.204Z,18.81
2018-04-01T00:14:24.215Z,18.84
2018-04-01T00:15:24.816Z,18.73
2018-04-01T00:16:24.185Z,18.81
2018-04-01T00:17:24.207Z,18.83
2018-04-01T00:18:24.193Z,18.73
2018-04-01T00:19:24.229Z,18.78
2018-04-01T00:20:24.206Z,18.83
2018-04-01T00:21:24.172Z,18.71
2018-04-01T00:22:24.202Z,18.77
2018-04-01T00:23:24.185Z,18.78
2018-04-01T00:24:24.231Z,18.71
2018-04-01T00:25:24.277Z,18.78
2018-04-01T00:26:24.209Z,18.78
2018-04-01T00:27:24.177Z,18.73
2018-04-01T00:28:24.188Z,18.75
2018-04-01T00:29:24.202Z,18.81
2018-04-01T00:30:24.203Z,18.68
2018-04-01T00:31:24.176Z,18.77
2018-04-01T00:32:24.190Z,18.78
2018-04-01T00:33:24.200Z,18.68
2018-04-01T00:34:24.164Z,18.74
2018-04-01T00:35:24.196Z,18.8
2018-04-01T00:36:24.165Z,18.7
2018-04-01T00:37:24.197Z,18.71
2018-04-01T00:38:24.222Z,18.75
2018-04-01T00:39:24.196Z,18.66
2018-04-01T00:40:24.226Z,18.68
2018-04-01T00:41:24.189Z,18.75
2018-04-01T00:42:24.165Z,18.67
2018-04-01T00:43:24.184Z,18.73
2018-04-01T00:44:24.163Z,18.77
2018-04-01T00:45:24.179Z,18.66
2018-04-01T00:46:24.264Z,18.71
2018-04-01T00:47:24.189Z,18.77
2018-04-01T00:48:24.167Z,18.64
2018-04-01T00:49:24.178Z,18.68
2018-04-01T00:50:24.171Z,18.75
2018-04-01T00:51:24.224Z,18.64
2018-04-01T00:52:24.192Z,18.7
2018-04-01T00:53:24.185Z,18.71
2018-04-01T00:54:24.159Z,18.63
2018-04-01T00:55:24.207Z,18.68
2018-04-01T00:56:24.163Z,18.7
2018-04-01T00:57:24.163Z,18.63
2018-04-01T00:58:24.176Z,18.67
2018-04-01T00:59:24.187Z,18.71
2018-04-01T01:00:24.190Z,18.58
2018-04-01T01:01:24.165Z,18.64
2018-04-01T01:02:24.178Z,18.7
2018-04-01T01:03:24.167Z,18.62
2018-04-01T01:04:24.169Z,18.66
2018-04-01T01:05:24.178Z,18.7
2018-04-01T01:06:24.168Z,18.58
2018-04-01T01:07:24.176Z,18.66
2018-04-01T01:08:24.160Z,18.7
2018-04-01T01:09:24.202Z,18.6
2018-04-01T01:10:24.440Z,18.66
2018-04-01T01:11:24.215Z,18.67
2018-04-01T01:12:24.164Z,18.58
2018-04-01T01:13:24.172Z,18.66
2018-04-01T01:14:24.154Z,18.67
2018-04-01T01:15:24.210Z,18.6
2018-04-01T01:16:24.169Z,18.62
2018-04-01T01:17:24.210Z,18.66
2018-04-01T01:18:24.144Z,18.58
2018-04-01T01:19:24.187Z,18.64
2018-04-01T01:20:24.567Z,18.67
2018-04-01T01:21:24.177Z,18.56
2018-04-01T01:22:24.156Z,18.62
2018-04-01T01:23:24.162Z,18.6
2018-04-01T01:24:24.165Z,18.57
2018-04-01T01:25:24.195Z,18.63
2018-04-01T01:26:24.183Z,18.66
2018-04-01T01:27:24.171Z,18.56
2018-04-01T01:28:24.162Z,18.58
2018-04-01T01:29:24.156Z,18.64
2018-04-01T01:30:24.209Z,18.54
2018-04-01T01:31:24.152Z,18.58
2018-04-01T01:32:24.170Z,18.63
2018-04-01T01:33:24.192Z,18.51
2018-04-01T01:34:24.146Z,18.57
2018-04-01T01:35:24.188Z,18.62
2018-04-01T01:36:24.135Z,18.54
2018-04-01T01:37:24.176Z,18.58
2018-04-01T01:38:24.196Z,18.62
2018-04-01T01:39:24.134Z,18.53
2018-04-01T01:40:24.175Z,18.58
2018-04-01T01:41:24.147Z,18.6
2018-04-01T01:42:24.150Z,18.5
2018-04-01T01:43:24.169Z,18.58
2018-04-01T01:44:24.153Z,18.62
2018-04-01T01:45:24.164Z,18.51
2018-04-01T01:46:24.131Z,18.56
2018-04-01T01:47:24.148Z,18.6
2018-04-01T01:48:24.256Z,18.5
2018-04-01T01:49:24.145Z,18.53
2018-04-01T01:50:24.172Z,18.58
2018-04-01T01:51:24.175Z,18.51
2018-04-01T01:52:24.163Z,18.56
2018-04-01T01:53:24.269Z,18.6
2018-04-01T01:54:24.235Z,18.51
2018-04-01T01:55:24.149Z,18.54
2018-04-01T01:56:24.171Z,18.57
2018-04-01T01:57:24.197Z,18.5
2018-04-01T01:58:24.171Z,18.54
2018-04-01T01:59:24.153Z,18.58
2018-04-01T02:00:24.181Z,18.47
2018-04-01T02:01:24.168Z,18.54
2018-04-01T02:02:24.153Z,18.58
2018-04-01T02:03:24.170Z,18.47
2018-04-01T02:04:24.169Z,18.5
2018-04-01T02:05:24.161Z,18.57
2018-04-01T02:06:24.189Z,18.46
2018-04-01T02:07:24.173Z,18.51
2018-04-01T02:08:24.174Z,18.54
2018-04-01T02:09:24.164Z,18.46
2018-04-01T02:10:24.180Z,18.49
2018-04-01T02:11:24.161Z,18.53
2018-04-01T02:12:24.219Z,18.44
2018-04-01T02:13:24.145Z,18.51
2018-04-01T02:14:24.148Z,18.53
2018-04-01T02:15:24.194Z,18.46
2018-04-01T02:16:24.144Z,18.5
2018-04-01T02:17:24.154Z,18.54
2018-04-01T02:18:24.164Z,18.44
2018-04-01T02:19:24.234Z,18.49
2018-04-01T02:20:24.173Z,18.57
2018-04-01T02:21:24.159Z,18.43
2018-04-01T02:22:24.161Z,18.5
2018-04-01T02:23:24.153Z,18.51
2018-04-01T02:24:24.157Z,18.41
2018-04-01T02:25:24.220Z,18.47
2018-04-01T02:26:24.186Z,18.51
2018-04-01T02:27:24.157Z,18.39
2018-04-01T02:28:24.233Z,18.44
2018-04-01T02:29:24.125Z,18.49
2018-04-01T02:30:24.163Z,18.37
2018-04-01T02:31:24.749Z,18.44
2018-04-01T02:32:24.187Z,18.51
2018-04-01T02:33:24.158Z,18.43
2018-04-01T02:34:24.178Z,18.49
2018-04-01T02:35:24.164Z,18.5
2018-04-01T02:36:24.217Z,18.39
2018-04-01T02:37:24.173Z,18.46
2018-04-01T02:38:24.209Z,18.49
2018-04-01T02:39:24.183Z,18.4
2018-04-01T02:40:24.207Z,18.44
2018-04-01T02:41:24.181Z,18.46
2018-04-01T02:42:24.183Z,18.36
2018-04-01T02:43:24.181Z,18.43
2018-04-01T02:44:24.163Z,18.47
2018-04-01T02:45:24.127Z,18.37
2018-04-01T02:46:24.176Z,18.43
2018-04-01T02:47:24.214Z,18.46
2018-04-01T02:48:24.161Z,18.37
2018-04-01T02:49:24.151Z,18.46
2018-04-01T02:50:24.223Z,18.44
2018-04-01T02:51:24.167Z,18.37
2018-04-01T02:52:24.160Z,18.41
2018-04-01T02:53:24.154Z,18.46
2018-04-01T02:54:24.142Z,18.36
2018-04-01T02:55:24.165Z,18.41
2018-04-01T02:56:24.163Z,18.47
2018-04-01T02:57:24.183Z,18.37
2018-04-01T02:58:24.196Z,18.4
2018-04-01T02:59:24.126Z,18.46
2018-04-01T03:00:24.121Z,18.37
2018-04-01T03:01:24.161Z,18.4
2018-04-01T03:02:24.173Z,18.44
2018-04-01T03:03:24.151Z,18.36
2018-04-01T03:04:24.142Z,18.37
2018-04-01T03:05:24.176Z,18.43
2018-04-01T03:06:24.133Z,18.33
2018-04-01T03:07:24.148Z,18.37
2018-04-01T03:08:24.140Z,18.41
2018-04-01T03:09:24.129Z,18.35
2018-04-01T03:10:24.161Z,18.39
2018-04-01T03:11:24.189Z,18.41
2018-04-01T03:12:24.134Z,18.33
2018-04-01T03:13:24.130Z,18.37
2018-04-01T03:14:24.143Z,18.39
2018-04-01T03:15:24.156Z,18.32
2018-04-01T03:16:24.161Z,18.35
2018-04-01T03:17:24.162Z,18.4
2018-04-01T03:18:24.143Z,18.3
2018-04-01T03:19:24.146Z,18.32
2018-04-01T03:20:24.136Z,18.4
2018-04-01T03:21:24.210Z,18.29
2018-04-01T03:22:24.136Z,18.35
2018-04-01T03:23:24.169Z,18.37
2018-04-01T03:24:24.137Z,18.28
2018-04-01T03:25:24.128Z,18.33
2018-04-01T03:26:24.164Z,18.37
2018-04-01T03:27:24.152Z,18.29
2018-04-01T03:28:24.221Z,18.33
2018-04-01T03:29:24.137Z,18.36
2018-04-01T03:30:24.172Z,18.28
2018-04-01T03:31:24.193Z,18.33
2018-04-01T03:32:24.135Z,18.35
2018-04-01T03:33:24.127Z,18.26
2018-04-01T03:34:24.133Z,18.3
2018-04-01T03:35:24.137Z,18.36
2018-04-01T03:36:24.138Z,18.26
2018-04-01T03:37:24.138Z,18.29
2018-04-01T03:38:24.145Z,18.35
2018-04-01T03:39:24.117Z,18.23
2018-04-01T03:40:24.122Z,18.29
2018-04-01T03:41:24.173Z,18.35
2018-04-01T03:42:24.143Z,18.25
2018-04-01T03:43:24.137Z,18.32
2018-04-01T03:44:24.143Z,18.35
2018-04-01T03:45:24.119Z,18.25
2018-04-01T03:46:24.157Z,18.3
2018-04-01T03:47:24.112Z,18.33
2018-04-01T03:48:24.111Z,18.25
2018-04-01T03:49:24.121Z,18.29
2018-04-01T03:50:24.191Z,18.33
2018-04-01T03:51:24.125Z,18.26
2018-04-01T03:52:24.212Z,18.3
2018-04-01T03:53:24.161Z,18.35
2018-04-01T03:54:24.230Z,18.26
2018-04-01T03:55:24.233Z,18.3
2018-04-01T03:56:24.102Z,18.36
2018-04-01T03:57:24.116Z,18.26
2018-04-01T03:58:24.172Z,18.32
2018-04-01T03:59:24.114Z,18.35
2018-04-01T04:00:24.467Z,18.26
2018-04-01T04:01:24.146Z,18.33
2018-04-01T04:02:24.117Z,18.37
2018-04-01T04:03:24.123Z,18.28
2018-04-01T04:04:24.165Z,18.32
2018-04-01T04:05:24.136Z,18.35
2018-04-01T04:06:24.112Z,18.29
2018-04-01T04:07:24.116Z,18.32
2018-04-01T04:08:24.172Z,18.37
2018-04-01T04:09:24.117Z,18.3
2018-04-01T04:10:24.098Z,18.33
2018-04-01T04:11:24.190Z,18.36
2018-04-01T04:12:24.120Z,18.33
2018-04-01T04:13:24.111Z,18.36
2018-04-01T04:14:24.109Z,18.4
2018-04-01T04:15:24.130Z,18.4
2018-04-01T04:16:24.122Z,18.44
2018-04-01T04:17:24.319Z,18.47
2018-04-01T04:18:24.125Z,18.5
2018-04-01T04:19:24.126Z,18.51
2018-04-01T04:20:24.128Z,18.53
2018-04-01T04:21:24.144Z,18.56
2018-04-01T04:22:24.151Z,18.57
2018-04-01T04:23:24.258Z,18.6
2018-04-01T04:24:24.121Z,18.6
2018-04-01T04:25:24.108Z,18.63
2018-04-01T04:26:24.116Z,18.63
2018-04-01T04:27:24.125Z,18.64
2018-04-01T04:28:24.124Z,18.68
2018-04-01T04:29:24.106Z,18.7
2018-04-01T04:30:24.087Z,18.7
2018-04-01T04:31:24.142Z,18.71
2018-04-01T04:32:24.124Z,18.74
2018-04-01T04:33:24.119Z,18.75
2018-04-01T04:34:24.100Z,18.78
2018-04-01T04:35:24.131Z,18.78
2018-04-01T04:36:24.091Z,18.78
2018-04-01T04:37:24.119Z,18.8
2018-04-01T04:38:24.108Z,18.81
2018-04-01T04:39:24.079Z,18.81
2018-04-01T04:40:24.136Z,18.85
2018-04-01T04:41:24.099Z,18.88
2018-04-01T04:42:24.113Z,18.88
2018-04-01T04:43:24.114Z,18.9
2018-04-01T04:44:24.151Z,18.91
2018-04-01T04:45:24.104Z,18.92
2018-04-01T04:46:24.098Z,18.94
2018-04-01T04:47:24.088Z,18.97
2018-04-01T04:48:24.102Z,18.95
2018-04-01T04:49:24.153Z,18.95
2018-04-01T04:50:24.089Z,19.01
2018-04-01T04:51:24.097Z,18.98
2018-04-01T04:52:24.137Z,19.02
2018-04-01T04:53:24.105Z,19.02
2018-04-01T04:54:24.179Z,19.03
2018-04-01T04:55:24.109Z,19.05
2018-04-01T04:56:24.263Z,19.08
2018-04-01T04:57:24.099Z,19.06
2018-04-01T04:58:24.101Z,19.09
2018-04-01T04:59:24.099Z,19.13
2018-04-01T05:00:24.105Z,19.11
2018-04-01T05:01:24.090Z,19.13
2018-04-01T05:02:24.096Z,19.13
2018-04-01T05:03:24.069Z,19.15
2018-04-01T05:04:24.090Z,19.19
2018-04-01T05:05:24.102Z,19.19
2018-04-01T05:06:24.102Z,19.2
2018-04-01T05:07:24.112Z,19.2
2018-04-01T05:08:24.397Z,19.2
2018-04-01T05:09:24.114Z,19.2
2018-04-01T05:10:24.094Z,19.23
2018-04-01T05:11:24.108Z,19.25
2018-04-01T05:12:24.099Z,19.26
2018-04-01T05:13:24.085Z,19.27
2018-04-01T05:14:24.119Z,19.27
2018-04-01T05:15:24.092Z,19.3
2018-04-01T05:16:24.105Z,19.29
2018-04-01T05:17:24.119Z,19.3
2018-04-01T05:18:24.096Z,19.3
2018-04-01T05:19:24.144Z,19.32
2018-04-01T05:20:24.160Z,19.33
2018-04-01T05:21:24.073Z,19.36
2018-04-01T05:22:24.168Z,19.35
2018-04-01T05:23:24.094Z,19.36
2018-04-01T05:24:24.085Z,19.36
2018-04-01T05:25:24.160Z,19.35
2018-04-01T05:26:24.109Z,19.37
2018-04-01T05:27:24.095Z,19.36
2018-04-01T05:28:24.068Z,19.37
2018-04-01T05:29:24.120Z,19.39
2018-04-01T05:30:24.101Z,19.39
2018-04-01T05:31:24.091Z,19.4
2018-04-01T05:32:24.080Z,19.39
2018-04-01T05:33:24.134Z,19.4
2018-04-01T05:34:24.109Z,19.39
2018-04-01T05:35:24.108Z,19.45
2018-04-01T05:36:24.100Z,19.42
2018-04-01T05:37:24.084Z,19.45
2018-04-01T05:38:24.084Z,19.46
2018-04-01T05:39:24.082Z,19.45
2018-04-01T05:40:24.200Z,19.47
2018-04-01T05:41:24.116Z,19.5
2018-04-01T05:42:24.075Z,19.5
2018-04-01T05:43:24.070Z,19.53
2018-04-01T05:44:24.121Z,19.53
2018-04-01T05:45:24.120Z,19.52
2018-04-01T05:46:24.071Z,19.53
2018-04-01T05:47:24.157Z,19.54
2018-04-01T05:48:24.083Z,19.53
2018-04-01T05:49:24.109Z,19.56
2018-04-01T05:50:24.124Z,19.57
2018-04-01T05:51:24.099Z,19.6
2018-04-01T05:52:24.099Z,19.58
2018-04-01T05:53:24.185Z,19.6
2018-04-01T05:54:24.079Z,19.6
2018-04-01T05:55:24.173Z,19.6
2018-04-01T05:56:24.251Z,19.64
2018-04-01T05:57:24.074Z,19.64
2018-04-01T05:58:24.100Z,19.63
2018-04-01T05:59:24.096Z,19.64
2018-04-01T06:00:24.067Z,19.63
2018-04-01T06:01:24.070Z,19.65
2018-04-01T06:02:24.077Z,19.64
2018-04-01T06:03:24.088Z,19.67
2018-04-01T06:04:24.072Z,19.64
2018-04-01T06:05:24.082Z,19.65
2018-04-01T06:06:24.152Z,19.63
2018-04-01T06:07:24.111Z,19.68
2018-04-01T06:08:24.083Z,19.67
2018-04-01T06:09:24.087Z,19.65
2018-04-01T06:10:24.060Z,19.65
2018-04-01T06:11:24.083Z,19.67
2018-04-01T06:12:24.063Z,19.67
2018-04-01T06:13:24.066Z,19.68
2018-04-01T06:14:24.107Z,19.68
2018-04-01T06:15:24.083Z,19.68
2018-04-01T06:16:24.067Z,19.71
2018-04-01T06:17:24.067Z,19.71
2018-04-01T06:18:24.082Z,19.73
2018-04-01T06:19:24.050Z,19.7
2018-04-01T06:20:24.108Z,19.73
2018-04-01T06:21:24.080Z,19.74
2018-04-01T06:22:24.104Z,19.73
2018-04-01T06:23:24.093Z,19.75
2018-04-01T06:24:24.065Z,19.74
2018-04-01T06:25:24.111Z,19.75
2018-04-01T06:26:24.066Z,19.78
2018-04-01T06:27:24.141Z,19.8
2018-04-01T06:28:24.086Z,19.78
2018-04-01T06:29:24.069Z,19.8
2018-04-01T06:30:24.120Z,19.78
2018-04-01T06:31:24.069Z,19.81
2018-04-01T06:32:24.079Z,19.81
2018-04-01T06:33:24.058Z,19.78
2018-04-01T06:34:24.095Z,19.8
2018-04-01T06:35:24.097Z,19.85
2018-04-01T06:36:24.048Z,19.82
2018-04-01T06:37:24.069Z,19.84
2018-04-01T06:38:24.114Z,19.85
2018-04-01T06:39:24.085Z,19.82
2018-04-01T06:40:24.244Z,19.85
2018-04-01T06:41:24.078Z,19.85
2018-04-01T06:42:24.101Z,19.85
2018-04-01T06:43:24.083Z,19.86
2018-04-01T06:44:24.089Z,19.88
2018-04-01T06:45:24.396Z,19.86
2018-04-01T06:46:24.083Z,19.89
2018-04-01T06:47:24.087Z,19.89
2018-04-01T06:48:24.064Z,19.86
2018-04-01T06:49:24.083Z,19.86
2018-04-01T06:50:24.049Z,19.89
2018-04-01T06:51:24.135Z,19.84
2018-04-01T06:52:24.074Z,19.88
2018-04-01T06:53:24.068Z,19.88
2018-04-01T06:54:24.066Z,19.86
2018-04-01T06:55:24.085Z,19.86
2018-04-01T06:56:24.150Z,19.89
2018-04-01T06:57:24.087Z,19.86
2018-04-01T06:58:24.295Z,19.88
2018-04-01T06:59:24.057Z,19.89
2018-04-01T07:00:24.088Z,19.89
2018-04-01T07:01:24.102Z,19.88
2018-04-01T07:02:24.145Z,19.89
2018-04-01T07:03:24.090Z,19.81
2018-04-01T07:04:24.032Z,19.74
2018-04-01T07:05:24.048Z,19.7
2018-04-01T07:06:24.130Z,19.47
2018-04-01T07:07:24.072Z,19.5
2018-04-01T07:08:24.041Z,19.54
2018-04-01T07:09:24.042Z,19.56
2018-04-01T07:10:24.072Z,19.6
2018-04-01T07:11:24.097Z,19.64
2018-04-01T07:12:24.067Z,19.68
2018-04-01T07:13:24.070Z,19.68
2018-04-01T07:14:24.069Z,19.71
2018-04-01T07:15:24.065Z,19.73
2018-04-01T07:16:24.060Z,19.74
2018-04-01T07:17:24.047Z,19.75
2018-04-01T07:18:24.066Z,19.86
2018-04-01T07:19:24.084Z,19.88
2018-04-01T07:20:24.056Z,19.89
2018-04-01T07:21:24.063Z,19.88
2018-04-01T07:22:24.043Z,19.85
2018-04-01T07:23:24.038Z,19.88
2018-04-01T07:24:24.101Z,19.88
2018-04-01T07:25:24.049Z,19.91
2018-04-01T07:26:24.058Z,19.91
2018-04-01T07:27:24.052Z,19.91
2018-04-01T07:28:24.081Z,19.91
2018-04-01T07:29:24.119Z,19.93
2018-04-01T07:30:24.087Z,19.95
2018-04-01T07:31:24.071Z,19.96
2018-04-01T07:32:24.066Z,19.95
2018-04-01T07:33:24.070Z,19.92
2018-04-01T07:34:24.052Z,19.93
2018-04-01T07:35:24.057Z,19.98
2018-04-01T07:36:24.070Z,19.96
2018-04-01T07:37:24.066Z,19.98
2018-04-01T07:38:24.032Z,19.96
2018-04-01T07:39:24.058Z,19.98
2018-04-01T07:40:24.054Z,19.98
2018-04-01T07:41:24.064Z,20.01
2018-04-01T07:42:24.380Z,19.99
2018-04-01T07:43:24.107Z,20.02
2018-04-01T07:44:24.068Z,20.01
2018-04-01T07:45:24.080Z,19.99
2018-04-01T07:46:24.088Z,20.01
2018-04-01T07:47:24.049Z,20.01
2018-04-01T07:48:24.091Z,20.01
2018-04-01T07:49:24.050Z,20.01
2018-04-01T07:50:24.037Z,20.02
2018-04-01T07:51:24.035Z,20.01
2018-04-01T07:52:24.068Z,20.02
2018-04-01T07:53:24.083Z,20.04
2018-04-01T07:54:24.066Z,20.11
2018-04-01T07:55:24.049Z,20.09
2018-04-01T07:56:24.126Z,20.07
2018-04-01T07:57:24.164Z,20.07
2018-04-01T07:58:24.191Z,20.05
2018-04-01T07:59:24.072Z,20.07
2018-04-01T08:00:24.121Z,20.04
2018-04-01T08:01:24.055Z,20.02
2018-04-01T08:02:24.064Z,20.04
2018-04-01T08:03:24.082Z,20.04
2018-04-01T08:04:24.070Z,20.05
2018-04-01T08:05:24.036Z,20.07
2018-04-01T08:06:24.066Z,20.08
2018-04-01T08:07:24.082Z,20.09
2018-04-01T08:08:24.025Z,20.11
2018-04-01T08:09:24.072Z,20.12
2018-04-01T08:10:24.078Z,20.11
2018-04-01T08:11:24.064Z,20.05
2018-04-01T08:12:24.071Z,20.08
2018-04-01T08:13:24.043Z,20.09
2018-04-01T08:14:24.065Z,20.09
2018-04-01T08:15:24.052Z,20.13
2018-04-01T08:16:24.037Z,20.12
2018-04-01T08:17:24.035Z,20.12
2018-04-01T08:18:24.038Z,20.11
2018-04-01T08:19:24.061Z,20.11
2018-04-01T08:20:24.022Z,20.13
2018-04-01T08:21:24.044Z,20.11
2018-04-01T08:22:24.059Z,20.12
2018-04-01T08:23:24.339Z,20.13
2018-04-01T08:24:24.008Z,20.09
2018-04-01T08:25:24.042Z,20.13
2018-04-01T08:26:24.020Z,20.16
2018-04-01T08:27:24.015Z,20.11
2018-04-01T08:28:24.055Z,20.12
2018-04-01T08:29:24.043Z,20.15
2018-04-01T08:30:24.040Z,20.13
2018-04-01T08:31:24.144Z,20.12
2018-04-01T08:32:24.039Z,20.16
2018-04-01T08:33:24.070Z,20.12
2018-04-01T08:34:24.042Z,20.13
2018-04-01T08:35:24.052Z,20.13
2018-04-01T08:36:24.077Z,20.15
2018-04-01T08:37:24.059Z,20.16
2018-04-01T08:38:24.024Z,20.16
2018-04-01T08:39:24.033Z,20.13
2018-04-01T08:40:24.027Z,20.15
2018-04-01T08:41:24.048Z,20.12
2018-04-01T08:42:24.040Z,20.13
2018-04-01T08:43:24.040Z,20.18
2018-04-01T08:44:24.014Z,20.19
2018-04-01T08:45:24.062Z,20.16
2018-04-01T08:46:24.075Z,20.16
2018-04-01T08:47:24.057Z,20.16
2018-04-01T08:48:24.068Z,20.16
2018-04-01T08:49:24.046Z,20.19
2018-04-01T08:50:24.037Z,20.19
2018-04-01T08:51:24.062Z,20.19
2018-04-01T08:52:24.070Z,20.19
2018-04-01T08:53:24.031Z,20.23
2018-04-01T08:54:24.066Z,20.18
2018-04-01T08:55:24.071Z,20.2
2018-04-01T08:56:24.012Z,20.19
2018-04-01T08:57:24.008Z,20.2
2018-04-01T08:58:24.075Z,20.18
2018-04-01T08:59:24.510Z,20.2
2018-04-01T09:00:24.048Z,20.18
2018-04-01T09:01:24.073Z,20.19
2018-04-01T09:02:24.088Z,20.2
2018-04-01T09:03:24.040Z,20.18
2018-04-01T09:04:24.007Z,20.2
2018-04-01T09:05:24.064Z,20.23
2018-04-01T09:06:24.051Z,20.22
2018-04-01T09:07:24.191Z,20.19
2018-04-01T09:08:24.612Z,20.2
2018-04-01T09:09:26.606Z,20.19
2018-04-01T09:10:24.397Z,20.2
2018-04-01T09:11:24.137Z,20.2
2018-04-01T09:12:24.050Z,20.18
2018-04-01T09:13:24.018Z,20.16
2018-04-01T09:14:24.022Z,20.2
2018-04-01T09:15:24.006Z,20.2
2018-04-01T09:16:24.062Z,20.18
2018-04-01T09:17:24.030Z,20.19
2018-04-01T09:18:24.029Z,20.18
2018-04-01T09:19:24.018Z,20.2
2018-04-01T09:20:24.009Z,20.22
2018-04-01T09:21:24.058Z,20.2
2018-04-01T09:22:24.041Z,20.22
2018-04-01T09:23:24.022Z,20.23
2018-04-01T09:24:24.027Z,20.23
2018-04-01T09:25:24.007Z,20.23
2018-04-01T09:26:24.026Z,20.23
2018-04-01T09:27:24.012Z,20.26
2018-04-01T09:28:24.009Z,20.25
2018-04-01T09:29:24.026Z,20.26
2018-04-01T09:30:24.005Z,20.26
2018-04-01T09:31:23.997Z,20.25
2018-04-01T09:32:24.061Z,20.27
2018-04-01T09:33:24.068Z,20.27
2018-04-01T09:34:23.987Z,20.29
2018-04-01T09:35:24.008Z,20.26
2018-04-01T09:36:24.036Z,20.42
2018-04-01T09:37:24.045Z,20.42
2018-04-01T09:38:24.036Z,20.42
2018-04-01T09:39:24.015Z,20.4
2018-04-01T09:40:23.999Z,20.42
2018-04-01T09:41:24.012Z,20.4
2018-04-01T09:42:24.034Z,20.42
2018-04-01T09:43:23.997Z,20.4
2018-04-01T09:44:24.091Z,20.4
2018-04-01T09:45:24.003Z,20.43
2018-04-01T09:46:24.034Z,20.4
2018-04-01T09:47:24.170Z,20.42
2018-04-01T09:48:24.013Z,20.42
2018-04-01T09:49:24.075Z,20.43
2018-04-01T09:50:24.076Z,20.42
2018-04-01T09:51:24.016Z,20.44
2018-04-01T09:52:24.042Z,20.46
2018-04-01T09:53:24.001Z,20.47
2018-04-01T09:54:25.705Z,20.47
2018-04-01T09:55:24.013Z,20.46
2018-04-01T09:56:24.191Z,20.44
2018-04-01T09:57:24.151Z,20.4
2018-04-01T09:58:24.117Z,20.42
2018-04-01T09:59:24.017Z,20.44
2018-04-01T10:00:24.006Z,20.46
2018-04-01T10:01:24.009Z,20.44
2018-04-01T10:02:24.016Z,20.44
2018-04-01T10:03:24.303Z,20.4
2018-04-01T10:04:24.033Z,20.42
2018-04-01T10:05:23.984Z,20.4
2018-04-01T10:06:24.030Z,20.36
2018-04-01T10:07:24.020Z,20.37
2018-04-01T10:08:24.003Z,20.36
2018-04-01T10:09:24.007Z,20.36
2018-04-01T10:10:24.008Z,20.35
2018-04-01T10:11:25.244Z,20.33
2018-04-01T10:12:24.017Z,20.29
2018-04-01T10:13:29.117Z,20.3
2018-04-01T10:14:24.007Z,20.33
2018-04-01T10:15:24.016Z,20.3
2018-04-01T10:16:23.989Z,20.3
2018-04-01T10:17:23.994Z,20.3
2018-04-01T10:18:24.023Z,20.27
2018-04-01T10:19:24.708Z,20.29
2018-04-01T10:20:23.990Z,20.27
2018-04-01T10:21:24.026Z,20.25
2018-04-01T10:22:24.013Z,20.3
2018-04-01T10:23:24.056Z,20.26
2018-04-01T10:24:23.989Z,20.25
2018-04-01T10:25:24.024Z,20.27
2018-04-01T10:26:24.035Z,20.25
2018-04-01T10:27:24.062Z,20.27
2018-04-01T10:28:24.026Z,20.26
2018-04-01T10:29:24.004Z,20.29
2018-04-01T10:30:24.020Z,20.3
2018-04-01T10:31:24.017Z,20.32
2018-04-01T10:32:24.010Z,20.33
2018-04-01T10:33:24.006Z,20.35
2018-04-01T10:34:23.999Z,20.36
2018-04-01T10:35:24.068Z,20.43
2018-04-01T10:36:24.006Z,20.4
2018-04-01T10:37:24.003Z,20.42
2018-04-01T10:38:24.014Z,20.43
2018-04-01T10:39:24.012Z,20.43
2018-04-01T10:40:24.007Z,20.46
2018-04-01T10:41:24.010Z,20.5
2018-04-01T10:42:24.016Z,20.48
2018-04-01T10:43:24.503Z,20.48
2018-04-01T10:44:23.979Z,20.51
2018-04-01T10:45:24.014Z,20.51
2018-04-01T10:46:23.982Z,20.51
2018-04-01T10:47:24.004Z,20.54
2018-04-01T10:48:24.104Z,20.61
2018-04-01T10:49:24.134Z,20.6
2018-04-01T10:50:23.982Z,20.63
2018-04-01T10:51:24.000Z,20.72
2018-04-01T10:52:24.000Z,20.74
2018-04-01T10:53:23.987Z,20.71
2018-04-01T10:54:23.998Z,20.71
2018-04-01T10:55:24.006Z,20.7
2018-04-01T10:56:24.000Z,20.68
2018-04-01T10:57:24.013Z,20.72
2018-04-01T10:58:24.020Z,20.7
2018-04-01T10:59:24.039Z,20.7
2018-04-01T11:00:23.992Z,20.71
2018-04-01T11:01:23.986Z,20.67
2018-04-01T11:02:23.974Z,20.72
2018-04-01T11:03:24.038Z,20.74
2018-04-01T11:04:24.008Z,20.72
2018-04-01T11:05:23.814Z,20.71
2018-04-01T11:06:24.048Z,20.72
2018-04-01T11:07:24.045Z,20.72
2018-04-01T11:08:24.005Z,20.74
2018-04-01T11:09:23.983Z,20.74
2018-04-01T11:10:24.000Z,20.72
2018-04-01T11:11:24.369Z,20.71
2018-04-01T11:12:23.976Z,20.71
2018-04-01T11:13:24.022Z,20.72
2018-04-01T11:14:23.989Z,20.74
2018-04-01T11:15:24.008Z,20.74
2018-04-01T11:16:23.985Z,20.75
2018-04-01T11:17:24.007Z,20.74
2018-04-01T11:18:24.030Z,20.75
2018-04-01T11:19:24.001Z,20.75
2018-04-01T11:20:23.996Z,20.75
2018-04-01T11:21:23.977Z,20.7
2018-04-01T11:22:23.988Z,20.71
2018-04-01T11:23:23.972Z,20.71
2018-04-01T11:24:24.006Z,20.7
2018-04-01T11:25:24.105Z,20.7
2018-04-01T11:26:24.097Z,20.7
2018-04-01T11:27:23.997Z,20.71
2018-04-01T11:28:24.024Z,20.71
2018-04-01T11:29:23.987Z,20.7
2018-04-01T11:30:23.991Z,20.71
2018-04-01T11:31:23.986Z,20.71
2018-04-01T11:32:23.993Z,20.71
2018-04-01T11:33:23.970Z,20.71
2018-04-01T11:34:24.012Z,20.7
2018-04-01T11:35:23.972Z,20.7
2018-04-01T11:36:24.057Z,20.71
2018-04-01T11:37:24.079Z,20.71
2018-04-01T11:38:23.980Z,20.7
2018-04-01T11:39:23.994Z,20.68
2018-04-01T11:40:24.018Z,20.67
2018-04-01T11:41:23.980Z,20.68
2018-04-01T11:42:23.963Z,20.64
2018-04-01T11:43:23.990Z,20.64
2018-04-01T11:44:24.037Z,20.66
2018-04-01T11:45:23.973Z,20.63
2018-04-01T11:46:23.989Z,20.66
2018-04-01T11:47:23.981Z,20.66
2018-04-01T11:48:23.983Z,20.61
2018-04-01T11:49:24.002Z,20.61
2018-04-01T11:50:23.977Z,20.64
2018-04-01T11:51:23.975Z,20.59
2018-04-01T11:52:23.980Z,20.6
2018-04-01T11:53:23.985Z,20.59
2018-04-01T11:54:23.947Z,20.55
2018-04-01T11:55:24.034Z,20.55
2018-04-01T11:56:23.960Z,20.54
2018-04-01T11:57:23.977Z,20.54
2018-04-01T11:58:24.080Z,20.53
2018-04-01T11:59:24.094Z,20.55
2018-04-01T12:00:23.990Z,20.53
2018-04-01T12:01:23.988Z,20.5
2018-04-01T12:02:23.971Z,20.54
2018-04-01T12:03:23.963Z,20.51
2018-04-01T12:04:23.950Z,20.5
2018-04-01T12:05:23.971Z,20.51
2018-04-01T12:06:24.006Z,20.44
2018-04-01T12:07:23.980Z,20.47
2018-04-01T12:08:24.013Z,20.5
2018-04-01T12:09:23.954Z,20.43
2018-04-01T12:10:23.942Z,20.46
2018-04-01T12:11:24.061Z,20.48
2018-04-01T12:12:23.967Z,20.42
2018-04-01T12:13:23.986Z,20.46
2018-04-01T12:14:24.394Z,20.47
2018-04-01T12:15:23.975Z,20.4
2018-04-01T12:16:24.220Z,20.43
2018-04-01T12:17:24.017Z,20.46
2018-04-01T12:18:23.967Z,20.44
2018-04-01T12:19:23.960Z,20.44
2018-04-01T12:20:23.989Z,20.44
2018-04-01T12:21:23.994Z,20.4
2018-04-01T12:22:23.998Z,20.4
2018-04-01T12:23:23.954Z,20.44
2018-04-01T12:24:23.967Z,20.4
2018-04-01T12:25:24.004Z,20.4
2018-04-01T12:26:23.954Z,20.44
2018-04-01T12:27:23.993Z,20.4
2018-04-01T12:28:23.989Z,20.42
2018-04-01T12:29:23.968Z,20.43
2018-04-01T12:30:23.958Z,20.42
2018-04-01T12:31:23.977Z,20.44
2018-04-01T12:32:23.948Z,20.43
2018-04-01T12:33:23.979Z,20.43
2018-04-01T12:34:23.975Z,20.44
2018-04-01T12:35:23.954Z,20.47
2018-04-01T12:36:23.979Z,20.44
2018-04-01T12:37:23.981Z,20.44
2018-04-01T12:38:23.969Z,20.47
2018-04-01T12:39:24.028Z,20.43
2018-04-01T12:40:23.977Z,20.48
2018-04-01T12:41:23.948Z,20.47
2018-04-01T12:42:24.005Z,20.47
2018-04-01T12:43:23.955Z,20.47
2018-04-01T12:44:23.945Z,20.48
2018-04-01T12:45:23.941Z,20.46
2018-04-01T12:46:23.949Z,20.5
2018-04-01T12:47:23.940Z,20.5
2018-04-01T12:48:23.984Z,20.5
2018-04-01T12:49:26.130Z,20.46
2018-04-01T12:50:23.991Z,20.5
2018-04-01T12:51:23.977Z,20.51
2018-04-01T12:52:23.989Z,20.51
2018-04-01T12:53:23.930Z,20.5
2018-04-01T12:54:23.967Z,20.47
2018-04-01T12:55:23.949Z,20.48
2018-04-01T12:56:23.946Z,20.51